Hillcrest Heights, Maryland
Current Conditions -  °F | °C
As of 3:58 AM on Saturday 25 Oct 2014 (Local Time) from KADW Reporting Station
Clear Clear  
Wind Chill: 51°   Ceiling: Unl
Heat Index: 51°   Visibility: 10mi
Dew Point: 38°   Wind: 6mph
Humidity: 62%   Direction: 310°NW
Pressure: 29.95"   Gusts: NA
Location:  38.8182°N, 76.9414°W
Report Text: KADW 250758Z AUTO 31005KT 10SM CLR 11/04 A2995 RMK AO2 SLP148 T01060035 $
Loading
Personal Weather Stations






























Interactive Weather Map
Tropical Storm Tracking
New forecast layout! Learn more

10-Day Weather Forecast

Advertisements
Track Severe Weather on mobile